createdAt,value
2023-01-05T00:01:14.659Z,100.0
2023-01-05T00:06:46.497Z,100.0
2023-01-05T00:12:18.109Z,100.0
2023-01-05T00:17:49.748Z,100.0
2023-01-05T00:23:27.824Z,100.0
2023-01-05T00:28:59.581Z,100.0
2023-01-05T00:34:31.332Z,100.0
2023-01-05T00:40:03.349Z,100.0
2023-01-05T00:45:35.771Z,100.0
2023-01-05T00:51:06.847Z,100.0
2023-01-05T00:56:38.447Z,100.0
2023-01-05T01:02:10.373Z,100.0
2023-01-05T01:07:41.957Z,100.0
2023-01-05T01:13:13.651Z,100.0
2023-01-05T01:18:45.908Z,100.0
2023-01-05T01:24:21.440Z,100.0
2023-01-05T01:29:53.124Z,100.0
2023-01-05T01:35:24.942Z,100.0
2023-01-05T01:40:56.739Z,100.0
2023-01-05T01:46:28.390Z,100.0
2023-01-05T01:52:00.142Z,100.0
2023-01-05T01:57:31.759Z,100.0
2023-01-05T02:03:03.362Z,100.0
2023-01-05T02:08:35.547Z,100.0
2023-01-05T02:14:06.929Z,100.0
2023-01-05T02:19:38.512Z,100.0
2023-01-05T02:25:14.573Z,100.0
2023-01-05T02:30:46.407Z,100.0
2023-01-05T02:36:22.231Z,100.0
2023-01-05T02:41:49.758Z,100.0
2023-01-05T02:47:21.483Z,100.0
2023-01-05T02:52:53.203Z,100.0
2023-01-05T02:58:24.939Z,100.0
2023-01-05T03:03:56.754Z,100.0
2023-01-05T03:09:28.441Z,100.0
2023-01-05T03:15:00.202Z,100.0
2023-01-05T03:20:31.919Z,100.0
2023-01-05T03:26:10.029Z,100.0
2023-01-05T03:31:41.884Z,100.0
2023-01-05T03:37:13.467Z,100.0
2023-01-05T03:42:45.205Z,100.0
2023-01-05T03:48:16.894Z,100.0
2023-01-05T03:53:48.642Z,100.0
2023-01-05T03:59:20.342Z,100.0
2023-01-05T04:04:52.068Z,100.0
2023-01-05T04:10:23.816Z,100.0
2023-01-05T04:15:55.697Z,100.0
2023-01-05T04:21:27.212Z,100.0
2023-01-05T04:27:03.329Z,100.0
2023-01-05T04:32:35.128Z,100.0
2023-01-05T04:38:06.804Z,100.0
2023-01-05T04:43:38.353Z,100.0
2023-01-05T04:49:10.223Z,100.0
2023-01-05T04:54:41.880Z,100.0
2023-01-05T05:00:13.634Z,100.0
2023-01-05T05:05:45.352Z,100.0
2023-01-05T05:11:17.068Z,100.0
2023-01-05T05:16:49.191Z,100.0
2023-01-05T05:22:20.428Z,100.0
2023-01-05T05:27:56.621Z,100.0
2023-01-05T05:33:28.345Z,100.0
2023-01-05T05:39:00.370Z,100.0
2023-01-05T05:44:31.877Z,100.0
2023-01-05T05:50:03.645Z,100.0
2023-01-05T05:55:35.412Z,100.0
2023-01-05T06:01:07.164Z,100.0
2023-01-05T06:06:38.816Z,100.0
2023-01-05T06:12:10.622Z,100.0
2023-01-05T06:17:42.212Z,100.0
2023-01-05T06:23:13.987Z,100.0
2023-01-05T06:28:50.201Z,100.0
2023-01-05T06:34:21.932Z,100.0
2023-01-05T06:39:53.620Z,100.0
2023-01-05T06:45:25.434Z,100.0
2023-01-05T06:50:56.894Z,100.0
2023-01-05T06:56:29.111Z,100.0
2023-01-05T07:02:00.588Z,100.0
2023-01-05T07:07:32.112Z,100.0
2023-01-05T07:13:03.823Z,100.0
2023-01-05T07:18:35.476Z,100.0
2023-01-05T07:24:07.406Z,100.0
2023-01-05T07:29:43.346Z,100.0
2023-01-05T07:35:15.118Z,100.0
2023-01-05T07:40:46.841Z,100.0
2023-01-05T07:46:18.522Z,100.0
2023-01-05T07:51:50.828Z,100.0
2023-01-05T07:57:21.991Z,100.0
2023-01-05T08:02:53.699Z,100.0
2023-01-05T08:08:25.549Z,100.0
2023-01-05T08:13:57.303Z,100.0
2023-01-05T08:19:28.968Z,100.0
2023-01-05T08:25:00.870Z,100.0
2023-01-05T08:31:03.816Z,100.0
2023-01-05T08:36:35.451Z,100.0
2023-01-05T08:42:07.229Z,100.0
2023-01-05T08:47:38.992Z,100.0
2023-01-05T08:53:10.720Z,100.0
2023-01-05T08:58:42.418Z,100.0
2023-01-05T09:04:14.250Z,100.0
2023-01-05T09:09:45.846Z,100.0
2023-01-05T09:15:17.630Z,100.0
2023-01-05T09:20:49.367Z,99.59
2023-01-05T09:26:20.993Z,97.76
2023-01-05T09:31:57.151Z,95.94
2023-01-05T09:37:28.873Z,95.89
2023-01-05T09:43:00.558Z,95.63
2023-01-05T09:48:32.278Z,95.84
2023-01-05T09:54:04.024Z,95.47
2023-01-05T09:59:35.887Z,94.85
2023-01-05T10:05:07.628Z,94.9
2023-01-05T10:10:39.161Z,94.63
2023-01-05T10:16:10.939Z,94.66
2023-01-05T10:21:42.637Z,94.16
2023-01-05T10:27:26.282Z,93.89
2023-01-05T10:32:51.237Z,93.31
2023-01-05T10:38:22.264Z,92.36
2023-01-05T10:43:53.993Z,92.88
2023-01-05T10:49:25.733Z,92.76
2023-01-05T10:54:57.575Z,92.39
2023-01-05T11:00:29.149Z,91.75
2023-01-05T11:06:00.867Z,90.53
2023-01-05T11:11:32.605Z,90.99
2023-01-05T11:17:04.292Z,90.85
2023-01-05T11:22:36.192Z,90.35
2023-01-05T11:28:07.724Z,89.03
2023-01-05T11:33:43.943Z,89.75
2023-01-05T11:39:15.583Z,88.94
2023-01-05T11:44:47.377Z,89.82
2023-01-05T11:50:18.970Z,89.68
2023-01-05T11:55:50.802Z,89.25
2023-01-05T12:01:22.588Z,89.75
2023-01-05T12:06:54.193Z,89.32
2023-01-05T12:12:25.922Z,89.85
2023-01-05T12:17:57.699Z,89.5
2023-01-05T12:23:29.425Z,89.59
2023-01-05T12:34:37.196Z,90.39
2023-01-05T12:40:09.313Z,91.15
2023-01-05T12:45:40.772Z,91.32
2023-01-05T12:51:12.449Z,91.38
2023-01-05T12:56:44.082Z,91.28
2023-01-05T13:02:16.115Z,91.22
2023-01-05T13:07:47.641Z,91.6
2023-01-05T13:13:19.329Z,91.82
2023-01-05T13:18:51.600Z,91.53
2023-01-05T13:24:22.904Z,91.53
2023-01-05T13:29:54.453Z,91.86
2023-01-05T13:35:32.593Z,92.12
2023-01-05T13:41:04.354Z,92.2
2023-01-05T13:46:36.152Z,91.84
2023-01-05T13:52:07.833Z,91.18
2023-01-05T13:57:39.548Z,91.04
2023-01-05T14:03:11.301Z,90.06
2023-01-05T14:08:43.247Z,90.16
2023-01-05T14:14:14.777Z,89.46
2023-01-05T14:19:46.421Z,90.51
2023-01-05T14:25:18.114Z,91.16
2023-01-05T14:30:49.798Z,91.83
2023-01-05T14:36:25.828Z,91.6
2023-01-05T14:41:57.585Z,92.02
2023-01-05T14:47:29.364Z,92.18
2023-01-05T14:53:01.328Z,91.74
2023-01-05T14:58:33.231Z,91.97
2023-01-05T15:04:04.548Z,91.77
2023-01-05T15:09:36.290Z,91.69
2023-01-05T15:15:07.952Z,92.04
2023-01-05T15:20:39.740Z,91.39
2023-01-05T15:26:11.431Z,91.16
2023-01-05T15:31:48.857Z,91.27
2023-01-05T15:37:19.323Z,91.17
2023-01-05T15:42:51.084Z,91.19
2023-01-05T15:48:23.286Z,91.25
2023-01-05T15:53:54.432Z,90.78
2023-01-05T15:59:26.348Z,90.73
2023-01-05T16:04:58.055Z,90.3
2023-01-05T16:10:29.761Z,90.89
2023-01-05T16:16:01.562Z,90.98
2023-01-05T16:21:33.183Z,91.11
2023-01-05T16:27:04.985Z,90.81
2023-01-05T16:32:36.761Z,90.75
2023-01-05T16:38:12.777Z,90.98
2023-01-05T16:43:44.534Z,90.77
2023-01-05T16:49:16.159Z,90.95
2023-01-05T16:54:47.822Z,90.86
2023-01-05T17:00:19.799Z,90.79
2023-01-05T17:05:51.368Z,90.31
2023-01-05T17:11:23.126Z,90.27
2023-01-05T17:16:55.064Z,90.58
2023-01-05T17:22:26.453Z,90.87
2023-01-05T17:27:58.208Z,90.97
2023-01-05T17:33:30.065Z,91.31
2023-01-05T17:39:08.165Z,90.75
2023-01-05T17:44:39.805Z,90.81
2023-01-05T17:50:11.601Z,91.35
2023-01-05T17:55:43.275Z,92.21
2023-01-05T18:01:15.110Z,92.82
2023-01-05T18:06:46.732Z,92.84
2023-01-05T18:12:18.497Z,93.21
2023-01-05T18:17:50.270Z,93.35
2023-01-05T18:23:22.049Z,93.27
2023-01-05T18:28:53.679Z,93.36
2023-01-05T18:34:25.557Z,93.92
2023-01-05T18:40:01.865Z,95.02
2023-01-05T18:45:40.324Z,95.59
2023-01-05T18:51:05.002Z,95.96
2023-01-05T18:56:36.900Z,97.6
2023-01-05T19:02:08.555Z,97.8
2023-01-05T19:07:40.268Z,98.15
2023-01-05T19:13:11.865Z,98.51
2023-01-05T19:18:43.489Z,97.62
2023-01-05T19:24:15.292Z,96.63
2023-01-05T19:29:47.274Z,95.79
2023-01-05T19:35:18.722Z,94.67
2023-01-05T19:40:56.861Z,94.2
2023-01-05T19:46:28.631Z,94.4
2023-01-05T19:52:00.373Z,95.86
2023-01-05T19:57:32.118Z,96.39
2023-01-05T20:03:04.107Z,98.15
2023-01-05T20:08:35.602Z,100.0
2023-01-05T20:14:10.425Z,100.0
2023-01-05T20:19:39.037Z,100.0
2023-01-05T20:25:10.750Z,100.0
2023-01-05T20:30:42.547Z,100.0
2023-01-05T20:36:14.805Z,100.0
2023-01-05T20:41:52.932Z,100.0
2023-01-05T20:47:24.275Z,100.0
2023-01-05T20:52:55.955Z,100.0
2023-01-05T20:58:27.755Z,100.0
2023-01-05T21:03:59.649Z,100.0
2023-01-05T21:04:48.731Z,100.0
2023-01-05T21:10:20.470Z,100.0
2023-01-05T21:15:52.276Z,100.0
2023-01-05T21:21:23.978Z,100.0
2023-01-05T21:26:55.687Z,100.0
2023-01-05T21:32:27.498Z,100.0
2023-01-05T21:37:59.454Z,100.0
2023-01-05T21:43:31.077Z,100.0
2023-01-05T21:49:02.725Z,100.0
2023-01-05T21:54:34.793Z,100.0
2023-01-05T22:00:06.120Z,100.0
2023-01-05T22:05:42.335Z,100.0
2023-01-05T22:11:13.990Z,100.0
2023-01-05T22:16:45.903Z,100.0
2023-01-05T22:22:17.530Z,100.0
2023-01-05T22:27:49.251Z,100.0
2023-01-05T22:33:21.517Z,100.0
2023-01-05T22:38:52.745Z,100.0
2023-01-05T22:44:24.388Z,100.0
2023-01-05T22:49:56.210Z,100.0
2023-01-05T22:55:28.003Z,100.0
2023-01-05T23:01:00.805Z,100.0
2023-01-05T23:06:37.086Z,100.0
2023-01-05T23:12:08.592Z,100.0
2023-01-05T23:17:40.315Z,100.0
2023-01-05T23:23:12.075Z,100.0
2023-01-05T23:28:43.702Z,100.0
2023-01-05T23:34:15.540Z,100.0
2023-01-05T23:39:47.177Z,100.0
2023-01-05T23:45:18.913Z,100.0
2023-01-05T23:50:50.588Z,100.0
2023-01-05T23:56:22.400Z,100.0
